createdAt,value
2018-12-18T00:00:18.784Z,4.54
2018-12-18T00:01:18.806Z,4.58
2018-12-18T00:02:18.800Z,4.57
2018-12-18T00:03:18.768Z,4.54
2018-12-18T00:04:18.760Z,4.55
2018-12-18T00:05:18.760Z,4.58
2018-12-18T00:06:18.784Z,4.50
2018-12-18T00:07:18.752Z,4.55
2018-12-18T00:08:18.776Z,4.57
2018-12-18T00:09:18.740Z,4.58
2018-12-18T00:10:18.737Z,4.57
2018-12-18T00:11:18.729Z,4.50
2018-12-18T00:12:18.758Z,4.54
2018-12-18T00:13:18.716Z,4.55
2018-12-18T00:14:18.715Z,4.51
2018-12-18T00:15:18.711Z,4.57
2018-12-18T00:16:18.735Z,4.52
2018-12-18T00:17:18.708Z,4.50
2018-12-18T00:18:18.698Z,4.47
2018-12-18T00:19:18.691Z,4.43
2018-12-18T00:20:18.744Z,4.57
2018-12-18T00:21:18.711Z,4.51
2018-12-18T00:22:18.747Z,4.47
2018-12-18T00:23:18.674Z,4.50
2018-12-18T00:24:18.674Z,4.46
2018-12-18T00:25:18.663Z,4.42
2018-12-18T00:26:18.687Z,4.50
2018-12-18T00:27:18.659Z,4.40
2018-12-18T00:28:18.680Z,4.50
2018-12-18T00:29:18.646Z,4.46
2018-12-18T00:30:18.642Z,4.50
2018-12-18T00:31:18.634Z,4.37
2018-12-18T00:32:18.630Z,4.42
2018-12-18T00:33:18.654Z,4.51
2018-12-18T00:34:18.622Z,4.55
2018-12-18T00:35:18.624Z,4.51
2018-12-18T00:36:18.610Z,4.52
2018-12-18T00:37:18.634Z,4.43
2018-12-18T00:38:18.600Z,4.43
2018-12-18T00:39:18.606Z,4.51
2018-12-18T00:40:18.595Z,4.46
2018-12-18T00:41:18.586Z,4.47
2018-12-18T00:42:18.610Z,4.44
2018-12-18T00:43:18.578Z,4.50
2018-12-18T00:44:18.576Z,4.43
2018-12-18T00:45:18.564Z,4.46
2018-12-18T00:46:18.564Z,4.50
2018-12-18T00:47:18.585Z,4.51
2018-12-18T00:48:18.552Z,4.37
2018-12-18T00:49:18.545Z,4.37
2018-12-18T00:50:18.545Z,4.43
2018-12-18T00:51:18.537Z,4.40
2018-12-18T00:52:18.561Z,4.42
2018-12-18T00:53:18.553Z,4.33
2018-12-18T00:54:18.525Z,4.37
2018-12-18T00:55:18.519Z,4.39
2018-12-18T00:56:18.512Z,4.44
2018-12-18T00:57:18.509Z,4.50
2018-12-18T00:58:18.529Z,4.37
2018-12-18T00:59:18.497Z,4.40
2018-12-18T01:00:18.501Z,4.37
2018-12-18T01:01:18.488Z,4.44
2018-12-18T01:02:18.485Z,4.42
2018-12-18T01:03:18.505Z,4.42
2018-12-18T01:04:18.476Z,4.37
2018-12-18T01:05:18.470Z,4.36
2018-12-18T01:06:18.464Z,4.36
2018-12-18T01:07:18.460Z,4.43
2018-12-18T01:08:18.476Z,4.37
2018-12-18T01:09:18.480Z,4.43
2018-12-18T01:10:18.444Z,4.39
2018-12-18T01:11:18.440Z,4.40
2018-12-18T01:12:18.437Z,4.42
2018-12-18T01:13:18.460Z,4.39
2018-12-18T01:14:18.425Z,4.39
2018-12-18T01:15:18.424Z,4.32
2018-12-18T01:16:18.416Z,4.26
2018-12-18T01:17:18.412Z,4.34
2018-12-18T01:18:18.435Z,4.34
2018-12-18T01:19:18.400Z,4.40
2018-12-18T01:20:18.399Z,4.39
2018-12-18T01:21:18.391Z,4.40
2018-12-18T01:22:18.386Z,4.32
2018-12-18T01:23:18.408Z,4.34
2018-12-18T01:24:18.375Z,4.40
2018-12-18T01:25:18.372Z,4.36
2018-12-18T01:26:18.368Z,4.42
2018-12-18T01:27:18.367Z,4.39
2018-12-18T01:28:18.384Z,4.37
2018-12-18T01:29:18.351Z,4.32
2018-12-18T01:30:18.348Z,4.34
2018-12-18T01:31:18.341Z,4.25
2018-12-18T01:32:18.364Z,4.28
2018-12-18T01:33:18.330Z,4.26
2018-12-18T01:34:18.357Z,4.29
2018-12-18T01:35:18.323Z,4.25
2018-12-18T01:36:18.317Z,4.24
2018-12-18T01:37:18.311Z,4.24
2018-12-18T01:38:18.334Z,4.22
2018-12-18T01:39:18.303Z,4.24
2018-12-18T01:40:18.297Z,4.22
2018-12-18T01:41:18.291Z,4.12
2018-12-18T01:42:18.315Z,4.19
2018-12-18T01:43:18.307Z,4.12
2018-12-18T01:44:18.275Z,4.15
2018-12-18T01:45:18.268Z,4.18
2018-12-18T01:46:18.267Z,4.19
2018-12-18T01:47:18.263Z,4.14
2018-12-18T01:48:18.287Z,4.16
2018-12-18T01:49:18.251Z,4.14
2018-12-18T01:50:18.247Z,4.07
2018-12-18T01:51:18.246Z,4.07
2018-12-18T01:52:18.267Z,3.92
2018-12-18T01:53:18.227Z,3.90
2018-12-18T01:54:18.229Z,3.88
2018-12-18T01:55:18.222Z,3.98
2018-12-18T01:56:18.221Z,3.92
2018-12-18T01:57:18.244Z,3.97
2018-12-18T01:58:18.206Z,3.85
2018-12-18T01:59:18.202Z,3.79
2018-12-18T02:00:18.202Z,3.85
2018-12-18T02:01:18.191Z,3.83
2018-12-18T02:02:18.218Z,3.78
2018-12-18T02:03:18.183Z,3.70
2018-12-18T02:04:18.299Z,3.76
2018-12-18T02:05:18.171Z,3.75
2018-12-18T02:06:18.160Z,3.72
2018-12-18T02:07:18.186Z,3.72
2018-12-18T02:08:18.153Z,3.75
2018-12-18T02:09:18.146Z,3.64
2018-12-18T02:10:18.142Z,3.60
2018-12-18T02:11:18.191Z,3.80
2018-12-18T02:12:18.158Z,3.75
2018-12-18T02:13:18.126Z,3.75
2018-12-18T02:14:18.124Z,3.61
2018-12-18T02:15:18.117Z,3.62
2018-12-18T02:16:18.125Z,3.57
2018-12-18T02:17:18.133Z,3.57
2018-12-18T02:18:18.102Z,3.64
2018-12-18T02:19:18.093Z,3.68
2018-12-18T02:20:18.096Z,3.62
2018-12-18T02:21:18.087Z,3.80
2018-12-18T02:22:18.101Z,3.70
2018-12-18T02:23:18.074Z,3.62
2018-12-18T02:24:18.097Z,3.72
2018-12-18T02:25:18.067Z,3.67
2018-12-18T02:26:18.057Z,3.65
2018-12-18T02:27:18.071Z,3.62
2018-12-18T02:28:18.080Z,3.61
2018-12-18T02:29:18.043Z,3.67
2018-12-18T02:30:18.042Z,3.65
2018-12-18T02:31:18.029Z,3.64
2018-12-18T02:32:18.025Z,3.57
2018-12-18T02:33:18.050Z,3.61
2018-12-18T02:34:18.013Z,3.71
2018-12-18T02:35:18.013Z,3.65
2018-12-18T02:36:18.008Z,3.58
2018-12-18T02:37:17.992Z,3.64
2018-12-18T02:38:18.016Z,3.71
2018-12-18T02:39:17.985Z,3.57
2018-12-18T02:40:17.982Z,3.57
2018-12-18T02:41:17.977Z,3.60
2018-12-18T02:42:17.969Z,3.52
2018-12-18T02:43:17.999Z,3.54
2018-12-18T02:44:17.960Z,3.46
2018-12-18T02:45:17.951Z,3.52
2018-12-18T02:46:17.949Z,3.36
2018-12-18T02:47:17.940Z,3.36
2018-12-18T02:48:17.960Z,3.36
2018-12-18T02:49:17.933Z,3.33
2018-12-18T02:50:17.927Z,3.27
2018-12-18T02:51:17.919Z,3.27
2018-12-18T02:52:17.916Z,3.40
2018-12-18T02:53:17.937Z,3.34
2018-12-18T02:54:17.909Z,3.31
2018-12-18T02:55:17.902Z,3.31
2018-12-18T02:56:17.891Z,3.25
2018-12-18T02:57:17.887Z,3.16
2018-12-18T02:58:17.906Z,3.27
2018-12-18T02:59:17.874Z,3.23
2018-12-18T03:00:17.866Z,3.30
2018-12-18T03:01:17.867Z,3.28
2018-12-18T03:02:17.859Z,3.24
2018-12-18T03:03:17.879Z,3.15
2018-12-18T03:04:21.393Z,3.16
2018-12-18T03:05:17.843Z,3.18
2018-12-18T03:06:17.832Z,3.15
2018-12-18T03:07:17.828Z,3.15
2018-12-18T03:08:17.860Z,3.15
2018-12-18T03:09:17.819Z,3.16
2018-12-18T03:10:17.817Z,3.10
2018-12-18T03:11:17.806Z,3.10
2018-12-18T03:12:17.802Z,3.18
2018-12-18T03:13:17.823Z,3.18
2018-12-18T03:14:17.789Z,3.18
2018-12-18T03:15:17.775Z,3.20
2018-12-18T03:16:17.778Z,3.25
2018-12-18T03:17:17.769Z,3.20
2018-12-18T03:18:17.791Z,3.20
2018-12-18T03:19:17.758Z,3.20
2018-12-18T03:20:17.754Z,3.21
2018-12-18T03:21:17.747Z,3.15
2018-12-18T03:22:17.741Z,3.15
2018-12-18T03:23:17.773Z,3.12
2018-12-18T03:24:17.738Z,3.10
2018-12-18T03:25:17.722Z,3.20
2018-12-18T03:26:17.714Z,3.16
2018-12-18T03:27:17.719Z,3.15
2018-12-18T03:28:17.735Z,3.12
2018-12-18T03:29:17.704Z,3.05
2018-12-18T03:30:17.694Z,3.07
2018-12-18T03:31:17.692Z,3.02
2018-12-18T03:32:17.688Z,2.97
2018-12-18T03:33:17.682Z,2.98
2018-12-18T03:34:17.697Z,2.91
2018-12-18T03:35:17.667Z,2.92
2018-12-18T03:36:17.661Z,2.89
2018-12-18T03:37:17.653Z,2.89
2018-12-18T03:38:17.649Z,2.87
2018-12-18T03:39:17.669Z,2.87
2018-12-18T03:40:17.636Z,3.00
2018-12-18T03:41:17.629Z,2.98
2018-12-18T03:42:17.631Z,2.97
2018-12-18T03:43:17.649Z,3.02
2018-12-18T03:44:17.620Z,3.09
2018-12-18T03:45:17.637Z,2.97
2018-12-18T03:46:17.599Z,3.06
2018-12-18T03:47:17.604Z,3.06
2018-12-18T03:48:17.589Z,3.03
2018-12-18T03:49:17.619Z,3.06
2018-12-18T03:50:17.578Z,3.02
2018-12-18T03:51:17.575Z,3.02
2018-12-18T03:52:17.573Z,3.06
2018-12-18T03:53:17.557Z,2.97
2018-12-18T03:54:17.584Z,3.13
2018-12-18T03:55:17.552Z,3.10
2018-12-18T03:56:17.545Z,3.15
2018-12-18T03:57:17.618Z,3.18
2018-12-18T03:58:17.532Z,3.18
2018-12-18T03:59:17.551Z,3.20
2018-12-18T04:00:17.519Z,3.23
2018-12-18T04:01:17.511Z,3.39
2018-12-18T04:02:17.506Z,3.40
2018-12-18T04:03:17.499Z,3.40
2018-12-18T04:04:17.519Z,3.40
2018-12-18T04:05:17.487Z,3.44
2018-12-18T04:06:17.482Z,3.50
2018-12-18T04:07:17.478Z,3.42
2018-12-18T04:08:17.486Z,3.46
2018-12-18T04:09:17.514Z,3.44
2018-12-18T04:10:17.454Z,3.49
2018-12-18T04:11:17.458Z,3.52
2018-12-18T04:12:17.450Z,3.52
2018-12-18T04:13:17.450Z,3.52
2018-12-18T04:14:17.462Z,3.52
2018-12-18T04:15:17.435Z,3.52
2018-12-18T04:16:17.427Z,3.52
2018-12-18T04:17:17.423Z,3.49
2018-12-18T04:18:17.415Z,3.54
2018-12-18T04:19:17.436Z,3.53
2018-12-18T04:20:17.409Z,3.47
2018-12-18T04:21:17.398Z,3.61
2018-12-18T04:22:17.390Z,3.49
2018-12-18T04:23:17.431Z,3.49
2018-12-18T04:24:17.381Z,3.39
2018-12-18T04:25:17.402Z,3.43
2018-12-18T04:26:17.369Z,3.43
2018-12-18T04:27:17.366Z,3.40
2018-12-18T04:28:17.357Z,3.34
2018-12-18T04:29:17.382Z,3.36
2018-12-18T04:30:17.347Z,3.40
2018-12-18T04:31:17.341Z,3.33
2018-12-18T04:32:17.338Z,3.40
2018-12-18T04:33:17.330Z,3.36
2018-12-18T04:34:17.353Z,3.34
2018-12-18T04:35:17.319Z,3.36
2018-12-18T04:36:17.322Z,3.44
2018-12-18T04:37:17.311Z,3.49
2018-12-18T04:38:17.305Z,3.47
2018-12-18T04:39:17.323Z,3.53
2018-12-18T04:40:17.317Z,3.57
2018-12-18T04:41:17.285Z,3.53
2018-12-18T04:42:17.280Z,3.53
2018-12-18T04:43:17.307Z,3.50
2018-12-18T04:44:17.266Z,3.54
2018-12-18T04:45:17.265Z,3.67
2018-12-18T04:46:17.286Z,3.60
2018-12-18T04:47:17.254Z,3.70
2018-12-18T04:48:17.249Z,3.53
2018-12-18T04:49:17.266Z,3.60
2018-12-18T04:50:17.245Z,3.64
2018-12-18T04:51:17.227Z,3.60
2018-12-18T04:52:17.226Z,3.52
2018-12-18T04:53:17.219Z,3.50
2018-12-18T04:54:17.247Z,3.53
2018-12-18T04:55:17.213Z,3.54
2018-12-18T04:56:17.206Z,3.49
2018-12-18T04:57:17.195Z,3.49
2018-12-18T04:58:17.198Z,3.43
2018-12-18T04:59:17.212Z,3.44
2018-12-18T05:00:17.182Z,3.47
2018-12-18T05:01:17.172Z,3.50
2018-12-18T05:02:17.169Z,3.49
2018-12-18T05:03:17.200Z,3.46
2018-12-18T05:04:17.982Z,3.44
2018-12-18T05:05:17.152Z,3.52
2018-12-18T05:06:17.145Z,3.46
2018-12-18T05:07:17.140Z,3.43
2018-12-18T05:08:17.164Z,3.50
2018-12-18T05:09:17.138Z,3.52
2018-12-18T05:10:17.119Z,3.53
2018-12-18T05:11:17.148Z,3.53
2018-12-18T05:12:17.116Z,3.57
2018-12-18T05:13:17.109Z,3.57
2018-12-18T05:14:17.127Z,3.57
2018-12-18T05:15:17.100Z,3.58
2018-12-18T05:16:17.105Z,3.50
2018-12-18T05:17:17.087Z,3.52
2018-12-18T05:18:17.080Z,3.53
2018-12-18T05:19:17.100Z,3.57
2018-12-18T05:20:17.071Z,3.57
2018-12-18T05:21:17.068Z,3.52
2018-12-18T05:22:17.059Z,3.49
2018-12-18T05:23:17.054Z,3.44
2018-12-18T05:24:17.076Z,3.40
2018-12-18T05:25:17.042Z,3.39
2018-12-18T05:26:17.039Z,3.36
2018-12-18T05:27:17.031Z,3.27
2018-12-18T05:28:17.030Z,3.30
2018-12-18T05:29:17.051Z,3.28
2018-12-18T05:30:17.016Z,3.23
2018-12-18T05:31:17.009Z,3.21
2018-12-18T05:32:17.004Z,3.09
2018-12-18T05:33:16.999Z,3.16
2018-12-18T05:34:17.022Z,3.15
2018-12-18T05:35:16.987Z,3.03
2018-12-18T05:36:16.980Z,3.05
2018-12-18T05:37:16.975Z,3.05
2018-12-18T05:38:16.967Z,3.03
2018-12-18T05:39:16.995Z,2.91
2018-12-18T05:40:16.963Z,2.94
2018-12-18T05:41:16.954Z,2.88
2018-12-18T05:42:16.960Z,2.94
2018-12-18T05:43:16.942Z,3.00
2018-12-18T05:44:16.965Z,3.07
2018-12-18T05:45:16.930Z,3.03
2018-12-18T05:46:16.926Z,3.16
2018-12-18T05:47:16.920Z,3.13
2018-12-18T05:48:16.913Z,3.16
2018-12-18T05:49:16.938Z,3.12
2018-12-18T05:50:16.901Z,3.06
2018-12-18T05:51:16.895Z,3.00
2018-12-18T05:52:16.898Z,3.15
2018-12-18T05:53:16.882Z,3.00
2018-12-18T05:54:16.912Z,3.03
2018-12-18T05:55:17.483Z,3.12
2018-12-18T05:56:16.883Z,3.12
2018-12-18T05:57:16.853Z,3.12
2018-12-18T05:58:16.859Z,3.13
2018-12-18T05:59:16.930Z,3.25
2018-12-18T06:00:16.845Z,3.28
2018-12-18T06:01:16.851Z,3.21
2018-12-18T06:02:16.835Z,3.25
2018-12-18T06:03:16.832Z,3.27
2018-12-18T06:04:16.852Z,3.42
2018-12-18T06:05:16.817Z,3.44
2018-12-18T06:06:16.810Z,3.39
2018-12-18T06:07:16.813Z,3.47
2018-12-18T06:08:16.797Z,3.46
2018-12-18T06:09:16.821Z,3.47
2018-12-18T06:10:16.784Z,3.46
2018-12-18T06:11:16.787Z,3.42
2018-12-18T06:12:16.781Z,3.44
2018-12-18T06:13:16.773Z,3.47
2018-12-18T06:14:16.796Z,3.47
2018-12-18T06:15:16.763Z,3.47
2018-12-18T06:16:16.768Z,3.52
2018-12-18T06:17:16.757Z,3.43
2018-12-18T06:18:16.747Z,3.58
2018-12-18T06:19:16.768Z,3.50
2018-12-18T06:20:16.724Z,3.54
2018-12-18T06:21:16.728Z,3.64
2018-12-18T06:22:16.725Z,3.62
2018-12-18T06:23:16.720Z,3.62
2018-12-18T06:24:16.742Z,3.67
2018-12-18T06:25:16.773Z,3.72
2018-12-18T06:26:16.705Z,3.72
2018-12-18T06:27:16.698Z,3.65
2018-12-18T06:28:16.701Z,3.76
2018-12-18T06:29:16.727Z,3.76
2018-12-18T06:30:16.679Z,3.72
2018-12-18T06:31:16.676Z,3.79
2018-12-18T06:32:16.674Z,3.75
2018-12-18T06:33:16.664Z,3.71
2018-12-18T06:34:16.687Z,3.79
2018-12-18T06:35:16.657Z,3.76
2018-12-18T06:36:16.648Z,3.80
2018-12-18T06:37:16.644Z,3.78
2018-12-18T06:38:16.634Z,3.70
2018-12-18T06:39:16.659Z,3.72
2018-12-18T06:40:16.627Z,3.72
2018-12-18T06:41:16.622Z,3.64
2018-12-18T06:42:16.618Z,3.62
2018-12-18T06:43:16.614Z,3.64
2018-12-18T06:44:16.638Z,3.61
2018-12-18T06:45:16.596Z,3.57
2018-12-18T06:46:16.594Z,3.68
2018-12-18T06:47:16.590Z,3.67
2018-12-18T06:48:16.586Z,3.57
2018-12-18T06:49:16.606Z,3.61
2018-12-18T06:50:16.574Z,3.68
2018-12-18T06:51:16.570Z,3.64
2018-12-18T06:52:16.563Z,3.62
2018-12-18T06:53:16.595Z,3.67
2018-12-18T06:54:16.582Z,3.62
2018-12-18T06:55:16.546Z,3.58
2018-12-18T06:56:16.545Z,3.64
2018-12-18T06:57:16.541Z,3.54
2018-12-18T06:58:16.526Z,3.43
2018-12-18T06:59:16.554Z,3.61
2018-12-18T07:00:19.521Z,3.53
2018-12-18T07:01:16.515Z,3.57
2018-12-18T07:02:16.509Z,3.64
2018-12-18T07:03:16.506Z,3.68
2018-12-18T07:04:16.526Z,3.58
2018-12-18T07:05:17.091Z,3.52
2018-12-18T07:06:16.494Z,3.58
2018-12-18T07:07:16.485Z,3.53
2018-12-18T07:08:16.484Z,3.57
2018-12-18T07:09:16.494Z,3.68
2018-12-18T07:10:16.465Z,3.58
2018-12-18T07:11:16.463Z,3.61
2018-12-18T07:12:16.502Z,3.64
2018-12-18T07:13:16.449Z,3.67
2018-12-18T07:14:16.473Z,3.60
2018-12-18T07:15:16.615Z,3.60
2018-12-18T07:16:16.460Z,3.65
2018-12-18T07:17:16.428Z,3.60
2018-12-18T07:18:16.421Z,3.52
2018-12-18T07:19:16.445Z,3.50
2018-12-18T07:20:16.408Z,3.50
2018-12-18T07:21:16.412Z,3.54
2018-12-18T07:22:16.400Z,3.60
2018-12-18T07:23:16.401Z,3.58
2018-12-18T07:24:16.427Z,3.60
2018-12-18T07:25:16.389Z,3.65
2018-12-18T07:26:16.383Z,3.67
2018-12-18T07:27:16.380Z,3.65
2018-12-18T07:28:16.368Z,3.71
2018-12-18T07:29:16.390Z,3.60
2018-12-18T07:30:16.376Z,3.61
2018-12-18T07:31:16.352Z,3.58
2018-12-18T07:32:16.352Z,3.67
2018-12-18T07:33:16.344Z,3.71
2018-12-18T07:34:16.368Z,3.75
2018-12-18T07:35:16.335Z,3.75
2018-12-18T07:36:16.327Z,3.71
2018-12-18T07:37:16.324Z,3.65
2018-12-18T07:38:16.321Z,3.68
2018-12-18T07:39:16.339Z,3.58
2018-12-18T07:40:16.313Z,3.62
2018-12-18T07:41:16.305Z,3.70
2018-12-18T07:42:16.298Z,3.62
2018-12-18T07:43:16.295Z,3.60
2018-12-18T07:44:16.315Z,3.62
2018-12-18T07:45:16.282Z,3.62
2018-12-18T07:46:16.276Z,3.76
2018-12-18T07:47:16.271Z,3.62
2018-12-18T07:48:16.267Z,3.60
2018-12-18T07:49:16.346Z,3.76
2018-12-18T07:50:16.300Z,3.61
2018-12-18T07:51:16.249Z,3.68
2018-12-18T07:52:16.250Z,3.76
2018-12-18T07:53:16.241Z,3.79
2018-12-18T07:54:16.267Z,3.70
2018-12-18T07:55:16.283Z,3.80
2018-12-18T07:56:16.226Z,3.82
2018-12-18T07:57:16.218Z,3.82
2018-12-18T07:58:16.214Z,3.80
2018-12-18T07:59:16.245Z,3.88
2018-12-18T08:00:16.203Z,3.88
2018-12-18T08:01:16.201Z,3.85
2018-12-18T08:02:16.197Z,3.88
2018-12-18T08:03:16.193Z,3.89
2018-12-18T08:04:16.213Z,3.94
2018-12-18T08:05:16.178Z,3.92
2018-12-18T08:06:16.852Z,3.88
2018-12-18T08:07:16.170Z,3.89
2018-12-18T08:08:16.165Z,4.01
2018-12-18T08:09:16.185Z,3.97
2018-12-18T08:10:16.154Z,3.97
2018-12-18T08:11:16.149Z,3.96
2018-12-18T08:12:16.142Z,3.88
2018-12-18T08:13:16.132Z,3.90
2018-12-18T08:14:16.161Z,4.03
2018-12-18T08:15:16.130Z,3.96
2018-12-18T08:16:16.125Z,4.14
2018-12-18T08:17:16.122Z,4.08
2018-12-18T08:18:16.117Z,4.16
2018-12-18T08:19:16.139Z,4.15
2018-12-18T08:20:16.123Z,4.15
2018-12-18T08:21:16.103Z,4.14
2018-12-18T08:22:16.097Z,4.08
2018-12-18T08:23:16.089Z,4.14
2018-12-18T08:24:16.125Z,4.14
2018-12-18T08:25:16.077Z,4.26
2018-12-18T08:26:16.076Z,4.24
2018-12-18T08:27:16.073Z,4.29
2018-12-18T08:28:16.066Z,4.28
2018-12-18T08:29:16.120Z,4.32
2018-12-18T08:30:16.057Z,4.39
2018-12-18T08:31:16.056Z,4.33
2018-12-18T08:32:16.046Z,4.37
2018-12-18T08:33:16.044Z,4.42
2018-12-18T08:34:16.065Z,4.54
2018-12-18T08:35:16.038Z,4.43
2018-12-18T08:36:16.032Z,4.47
2018-12-18T08:37:16.025Z,4.47
2018-12-18T08:38:16.023Z,4.47
2018-12-18T08:39:16.040Z,4.54
2018-12-18T08:40:16.017Z,4.55
2018-12-18T08:41:16.011Z,4.58
2018-12-18T08:42:15.999Z,4.61
2018-12-18T08:43:16.005Z,4.59
2018-12-18T08:44:16.019Z,4.59
2018-12-18T08:45:15.988Z,4.70
2018-12-18T08:46:15.980Z,4.67
2018-12-18T08:47:15.985Z,4.73
2018-12-18T08:48:16.004Z,4.75
2018-12-18T08:49:15.977Z,4.69
2018-12-18T08:50:15.967Z,4.76
2018-12-18T08:51:15.961Z,4.73
2018-12-18T08:52:15.960Z,4.70
2018-12-18T08:53:15.976Z,4.83
2018-12-18T08:54:15.976Z,4.73
2018-12-18T08:55:15.947Z,4.79
2018-12-18T08:56:15.942Z,4.79
2018-12-18T08:57:15.934Z,4.92
2018-12-18T08:58:15.936Z,4.98
2018-12-18T08:59:15.960Z,4.91
2018-12-18T09:00:15.929Z,4.96
2018-12-18T09:01:15.921Z,4.92
2018-12-18T09:02:15.915Z,4.96
2018-12-18T09:03:15.914Z,5.01
2018-12-18T09:04:15.938Z,5.10
2018-12-18T09:05:15.906Z,5.12
2018-12-18T09:06:15.902Z,5.13
2018-12-18T09:07:15.898Z,5.16
2018-12-18T09:08:15.893Z,5.25
2018-12-18T09:09:15.920Z,5.35
2018-12-18T09:10:15.886Z,5.38
2018-12-18T09:11:15.882Z,5.77
2018-12-18T09:12:15.882Z,6.32
2018-12-18T09:13:15.874Z,6.16
2018-12-18T09:14:15.901Z,6.03
2018-12-18T09:15:15.898Z,5.81
2018-12-18T09:16:15.867Z,5.70
2018-12-18T09:17:15.876Z,5.81
2018-12-18T09:18:15.865Z,6.10
2018-12-18T09:19:16.524Z,6.61
2018-12-18T09:20:15.898Z,7.12
2018-12-18T09:21:15.870Z,7.50
2018-12-18T09:22:15.861Z,8.02
2018-12-18T09:23:15.859Z,8.45
2018-12-18T09:24:15.891Z,8.45
2018-12-18T09:25:15.866Z,8.40
2018-12-18T09:26:15.865Z,8.42
2018-12-18T09:27:15.913Z,8.86
2018-12-18T09:28:15.881Z,9.13
2018-12-18T09:29:15.901Z,8.71
2018-12-18T09:30:15.901Z,8.30
2018-12-18T09:31:15.883Z,7.82
2018-12-18T09:32:15.923Z,7.38
2018-12-18T09:33:15.884Z,7.66
2018-12-18T09:34:15.888Z,7.20
2018-12-18T09:35:15.920Z,6.86
2018-12-18T09:36:15.896Z,6.40
2018-12-18T09:37:15.899Z,6.14
2018-12-18T09:38:15.901Z,6.16
2018-12-18T09:39:15.905Z,6.38
2018-12-18T09:40:15.933Z,6.50
2018-12-18T09:41:15.907Z,6.65
2018-12-18T09:42:15.932Z,6.59
2018-12-18T09:43:15.917Z,6.95
2018-12-18T09:44:15.918Z,7.55
2018-12-18T09:45:15.944Z,7.50
2018-12-18T09:46:15.924Z,7.16
2018-12-18T09:47:15.920Z,7.41
2018-12-18T09:48:15.925Z,7.26
2018-12-18T09:49:15.930Z,7.22
2018-12-18T09:50:15.951Z,7.52
2018-12-18T09:51:15.999Z,7.84
2018-12-18T09:52:15.936Z,7.69
2018-12-18T09:53:15.942Z,7.72
2018-12-18T09:54:15.943Z,8.17
2018-12-18T09:55:15.975Z,8.25
2018-12-18T09:56:15.952Z,8.57
2018-12-18T09:57:15.953Z,8.48
2018-12-18T09:58:15.964Z,8.30
2018-12-18T09:59:15.967Z,8.40
2018-12-18T10:00:15.997Z,8.29
2018-12-18T10:01:15.979Z,7.89
2018-12-18T10:02:15.982Z,7.77
2018-12-18T10:03:15.991Z,7.96
2018-12-18T10:04:15.997Z,8.69
2018-12-18T10:05:16.026Z,8.65
2018-12-18T10:06:16.001Z,8.94
2018-12-18T10:07:16.009Z,9.06
2018-12-18T10:08:16.032Z,9.12
2018-12-18T10:09:16.029Z,9.66
2018-12-18T10:10:16.062Z,9.82
2018-12-18T10:11:16.049Z,9.85
2018-12-18T10:12:16.045Z,9.73
2018-12-18T10:13:16.053Z,9.57
2018-12-18T10:14:16.058Z,9.49
2018-12-18T10:15:16.095Z,8.90
2018-12-18T10:16:16.078Z,8.55
2018-12-18T10:17:16.081Z,8.25
2018-12-18T10:18:16.090Z,8.18
2018-12-18T10:19:16.097Z,8.29
2018-12-18T10:20:16.130Z,8.30
2018-12-18T10:21:16.109Z,8.48
2018-12-18T10:22:16.115Z,8.39
2018-12-18T10:23:16.117Z,7.89
2018-12-18T10:24:16.681Z,8.18
2018-12-18T10:25:16.153Z,8.35
2018-12-18T10:26:16.130Z,8.84
2018-12-18T10:27:16.135Z,9.30
2018-12-18T10:28:16.141Z,9.56
2018-12-18T10:29:16.148Z,9.96
2018-12-18T10:30:16.182Z,10.00
2018-12-18T10:31:16.158Z,10.22
2018-12-18T10:32:16.164Z,10.18
2018-12-18T10:33:16.168Z,10.03
2018-12-18T10:34:16.177Z,10.04
2018-12-18T10:35:16.336Z,10.26
2018-12-18T10:36:16.201Z,10.39
2018-12-18T10:37:16.197Z,10.56
2018-12-18T10:38:16.206Z,10.58
2018-12-18T10:39:16.210Z,10.52
2018-12-18T10:40:16.241Z,10.42
2018-12-18T10:41:16.233Z,10.34
2018-12-18T10:42:16.231Z,10.43
2018-12-18T10:43:16.240Z,10.43
2018-12-18T10:44:16.245Z,10.74
2018-12-18T10:45:16.284Z,11.02
2018-12-18T10:46:16.264Z,11.01
2018-12-18T10:47:16.273Z,10.81
2018-12-18T10:48:16.280Z,10.89
2018-12-18T10:49:16.288Z,10.68
2018-12-18T10:50:16.325Z,10.60
2018-12-18T10:51:16.304Z,10.39
2018-12-18T10:52:16.311Z,10.47
2018-12-18T10:53:16.407Z,10.32
2018-12-18T10:54:16.328Z,10.39
2018-12-18T10:55:16.366Z,10.47
2018-12-18T10:56:16.344Z,11.09
2018-12-18T10:57:16.353Z,10.88
2018-12-18T10:58:16.399Z,10.55
2018-12-18T10:59:16.372Z,10.53
2018-12-18T11:00:16.408Z,10.62
2018-12-18T11:01:16.387Z,10.18
2018-12-18T11:02:16.396Z,10.30
2018-12-18T11:03:16.414Z,10.47
2018-12-18T11:04:16.419Z,10.24
2018-12-18T11:05:16.452Z,10.18
2018-12-18T11:06:16.459Z,9.82
2018-12-18T11:07:16.440Z,9.42
2018-12-18T11:08:16.455Z,9.64
2018-12-18T11:09:16.463Z,9.61
2018-12-18T11:10:16.505Z,10.03
2018-12-18T11:11:16.514Z,10.60
2018-12-18T11:12:16.495Z,10.86
2018-12-18T11:13:16.506Z,11.02
2018-12-18T11:14:16.511Z,11.28
2018-12-18T11:15:16.544Z,11.47
2018-12-18T11:16:16.569Z,11.77
2018-12-18T11:17:16.543Z,11.96
2018-12-18T11:18:16.551Z,12.09
2018-12-18T11:19:16.566Z,11.46
2018-12-18T11:20:16.605Z,10.22
2018-12-18T11:21:16.611Z,9.76
2018-12-18T11:22:16.595Z,9.48
2018-12-18T11:23:16.609Z,9.94
2018-12-18T11:24:16.623Z,10.22
2018-12-18T11:25:16.655Z,10.43
2018-12-18T11:26:16.636Z,10.01
2018-12-18T11:27:16.643Z,10.15
2018-12-18T11:28:16.659Z,10.00
2018-12-18T11:29:16.666Z,10.22
2018-12-18T11:30:16.714Z,10.32
2018-12-18T11:31:16.720Z,10.14
2018-12-18T11:32:16.700Z,9.58
2018-12-18T11:33:16.706Z,9.57
2018-12-18T11:34:16.716Z,9.23
2018-12-18T11:35:16.751Z,9.38
2018-12-18T11:36:16.863Z,9.96
2018-12-18T11:37:16.749Z,10.19
2018-12-18T11:38:16.761Z,9.97
2018-12-18T11:39:16.771Z,9.34
2018-12-18T11:40:16.800Z,9.20
2018-12-18T11:41:16.785Z,9.35
2018-12-18T11:42:16.794Z,9.78
2018-12-18T11:43:16.805Z,10.01
2018-12-18T11:44:16.814Z,10.32
2018-12-18T11:45:16.851Z,10.86
2018-12-18T11:46:16.839Z,11.35
2018-12-18T11:47:16.846Z,11.86
2018-12-18T11:48:16.855Z,11.67
2018-12-18T11:49:16.866Z,11.75
2018-12-18T11:50:16.899Z,12.04
2018-12-18T11:51:16.913Z,12.21
2018-12-18T11:52:16.898Z,11.21
2018-12-18T11:53:16.907Z,10.70
2018-12-18T11:54:16.918Z,9.35
2018-12-18T11:55:16.952Z,9.39
2018-12-18T11:56:16.938Z,9.57
2018-12-18T11:57:16.946Z,9.64
2018-12-18T11:58:16.957Z,9.39
2018-12-18T11:59:16.973Z,9.32
2018-12-18T12:00:17.008Z,9.27
2018-12-18T12:01:16.989Z,9.46
2018-12-18T12:02:16.996Z,9.42
2018-12-18T12:03:17.009Z,8.62
2018-12-18T12:04:17.017Z,8.53
2018-12-18T12:05:17.058Z,8.51
2018-12-18T12:06:22.837Z,9.09
2018-12-18T12:07:17.050Z,9.15
2018-12-18T12:08:17.057Z,9.52
2018-12-18T12:09:17.066Z,9.86
2018-12-18T12:10:17.101Z,10.28
2018-12-18T12:11:17.086Z,10.74
2018-12-18T12:12:17.086Z,10.78
2018-12-18T12:13:17.095Z,10.84
2018-12-18T12:14:17.104Z,10.58
2018-12-18T12:15:17.149Z,11.13
2018-12-18T12:16:17.127Z,11.57
2018-12-18T12:17:17.136Z,11.70
2018-12-18T12:18:17.145Z,11.38
2018-12-18T12:19:17.153Z,10.44
2018-12-18T12:20:17.186Z,9.56
2018-12-18T12:21:17.193Z,8.26
2018-12-18T12:22:17.181Z,7.37
2018-12-18T12:23:17.189Z,7.16
2018-12-18T12:24:17.197Z,7.84
2018-12-18T12:25:17.229Z,8.08
2018-12-18T12:26:17.234Z,8.29
2018-12-18T12:27:17.219Z,8.32
2018-12-18T12:28:17.221Z,8.07
2018-12-18T12:29:17.225Z,8.03
2018-12-18T12:30:17.235Z,7.82
2018-12-18T12:31:17.266Z,7.67
2018-12-18T12:32:17.246Z,7.67
2018-12-18T12:33:17.242Z,7.60
2018-12-18T12:34:17.305Z,8.07
2018-12-18T12:35:17.349Z,8.63
2018-12-18T12:36:17.285Z,9.01
2018-12-18T12:37:17.256Z,8.83
2018-12-18T12:38:17.258Z,8.62
2018-12-18T12:39:17.258Z,8.62
2018-12-18T12:40:17.265Z,8.69
2018-12-18T12:41:17.296Z,8.45
2018-12-18T12:42:17.276Z,8.20
2018-12-18T12:43:17.282Z,7.93
2018-12-18T12:44:17.276Z,7.55
2018-12-18T12:45:17.271Z,7.15
2018-12-18T12:46:17.308Z,6.71
2018-12-18T12:47:17.305Z,6.58
2018-12-18T12:48:17.284Z,6.63
2018-12-18T12:49:17.281Z,6.69
2018-12-18T12:50:17.283Z,6.69
2018-12-18T12:51:17.285Z,6.59
2018-12-18T12:52:17.312Z,6.53
2018-12-18T12:53:17.280Z,6.66
2018-12-18T12:54:17.284Z,6.72
2018-12-18T12:55:17.304Z,6.71
2018-12-18T12:56:17.284Z,6.83
2018-12-18T12:57:17.312Z,6.84
2018-12-18T12:58:17.284Z,6.79
2018-12-18T12:59:17.280Z,6.65
2018-12-18T13:00:17.284Z,6.56
2018-12-18T13:01:17.311Z,6.66
2018-12-18T13:02:17.279Z,6.71
2018-12-18T13:03:17.279Z,6.59
2018-12-18T13:04:17.276Z,6.35
2018-12-18T13:05:17.278Z,6.04
2018-12-18T13:06:17.300Z,6.01
2018-12-18T13:07:17.305Z,5.93
2018-12-18T13:08:18.036Z,5.92
2018-12-18T13:09:17.270Z,5.89
2018-12-18T13:10:17.269Z,6.00
2018-12-18T13:11:17.268Z,6.01
2018-12-18T13:12:17.288Z,6.03
2018-12-18T13:13:17.262Z,6.04
2018-12-18T13:14:17.271Z,5.96
2018-12-18T13:15:17.255Z,6.06